Pagrindinis puslapis
METAR-TAF:

METAR-TAF

Oro uostai :

Tan Son Nhat oro uostas

Hošiminas, Vietnamas

platuma: 10-49N, ilguma: 106-40E, Aukštis: 19 m

Dabartinis oras

Ataskaita buvo paskelbta 20 minutes, ne 05:00 UTC
Vėjas 7 kt iš Rytų, svyruoja nuo Šiaurės Rytų ir Pietryčių
Temperatūra 33°C
Drėgmė 53%
Slėgis 1012 hPa
Matomumas 10 km arba daugiau
Išsisklaidę debesys ne aukštis 1700 ft

METAR: VVTS 100500Z 10007KT 040V140 9999 SCT017 33/22 Q1012 NOSIG

Laikas: 12:20 (05:20 UTC)

Prognozė

Ataskaita buvo paskelbta 6 valandos ir 20 minutes, ne 23:00 UTC
Prognozė galioja nuo 10 metu 00 UTC su 11 metu 06 UTC
Vėjas 10 kt iš Rytų/Pietryčių
Matomumas 10 km arba daugiau
Išsisklaidę debesys ne aukštis 1700 ft
Laikinai
nuo 10 metu 08 UTC su 10 metu 10 UTC
Vėjas 15 kt iš Rytų/Pietryčių su gūsio iki 30 kt
Matomumas: 5000 m
Su prošvaistėmis ne aukštis 1300 ft
Išsisklaidę debesys ne aukštis 1700 ft, Liūtiniai kamuoliniai debesys.
perkūnija, lietus

TAF: VVTS 092300Z 1000/1106 11010KT 9999 SCT017 TEMPO 1008/1010 11015G30KT 5000 TSRA BKN013 SCT017CB

Orai ataskaitas ir orų prognozės (METAR, TAF).

turimą stotys yra geltonos ir raudonos taškus žemėlapyje.

Perkelti pele per norėdami pamatyti stoties vardą.

Tada spustelėkite, norėdami matyti oro stebėjimo ir prognozės.

Norėdami pakeisti žemėlapį: spustelėkite ant žalios mygtukų su juodo kryžiaus žemyn,; žalią mygtuką su brūkšneliu, jei norite nutolinti; arba žalių rodyklių gretimoms žemėlapius.


METAR-TAF: